Time;durP1;ratioP1;P1;durP2;ratioP2;P2;SDS_P1;SDS_P2;PMS_P1;PMS_P2;Temp;Humidity;BMP_temperature;BMP_pressure;BME280_temperature;BME280_humidity;BME280_pressure;Samples;Min_cycle;Max_cycle;Signal;HPM_P1;HPM_P2
2022/10/10 00:00:29;;;;;;;3.83;1.38;;;;;;;5.80;100.00;101522.78;2087801;28;34830;-76
2022/10/10 00:01:33;;;;;;;7.03;1.20;;;;;;;5.80;100.00;101528.09;2087595;28;39452;-76
2022/10/10 00:02:35;;;;;;;4.10;1.25;;;;;;;5.78;100.00;101522.78;2086884;28;41617;-77
2022/10/10 00:03:37;;;;;;;5.20;1.05;;;;;;;5.74;100.00;101529.84;2086928;28;34319;-76
2022/10/10 00:04:39;;;;;;;4.60;1.40;;;;;;;5.71;100.00;101519.19;2088390;28;20038;-77
2022/10/10 00:05:41;;;;;;;3.15;1.35;;;;;;;5.67;100.00;101521.78;2086809;28;42909;-77
2022/10/10 00:06:43;;;;;;;2.30;0.90;;;;;;;5.72;100.00;101517.41;2079278;28;35058;-76
2022/10/10 00:07:47;;;;;;;5.90;1.42;;;;;;;5.78;100.00;101514.81;2087458;28;36048;-76
2022/10/10 00:08:49;;;;;;;5.32;1.20;;;;;;;5.79;100.00;101516.56;2087275;28;33711;-76
2022/10/10 00:09:51;;;;;;;3.88;1.33;;;;;;;5.83;100.00;101517.47;2086885;28;35459;-77
2022/10/10 00:10:53;;;;;;;4.10;1.42;;;;;;;5.81;100.00;101516.56;2087494;28;41798;-77
2022/10/10 00:11:54;;;;;;;4.10;1.33;;;;;;;5.79;100.00;101510.38;2088071;28;20045;-79
2022/10/10 00:12:57;;;;;;;4.57;1.45;;;;;;;5.81;100.00;101508.59;2087594;28;41999;-77
2022/10/10 00:13:59;;;;;;;6.68;1.10;;;;;;;5.77;100.00;101506.81;2087103;28;39816;-76
2022/10/10 00:15:01;;;;;;;8.05;1.25;;;;;;;5.72;100.00;101510.34;2087650;28;20152;-76
2022/10/10 00:16:03;;;;;;;2.70;0.98;;;;;;;5.72;100.00;101514.75;2087351;28;37551;-77
2022/10/10 00:17:04;;;;;;;3.33;1.13;;;;;;;5.71;100.00;101503.22;2087509;28;36441;-77
2022/10/10 00:18:06;;;;;;;7.32;1.20;;;;;;;5.69;100.00;101510.31;2095776;28;20041;-77
2022/10/10 00:19:08;;;;;;;8.95;1.20;;;;;;;5.69;100.00;101505.00;2087495;28;43124;-77
2022/10/10 00:20:12;;;;;;;4.18;1.23;;;;;;;5.64;100.00;101505.84;2087985;28;35796;-77
2022/10/10 00:21:15;;;;;;;3.70;1.00;;;;;;;5.58;100.00;101509.38;2088279;28;20050;-77
2022/10/10 00:22:16;;;;;;;3.90;0.82;;;;;;;5.54;100.00;101504.88;2087174;28;43680;-77
2022/10/10 00:23:19;;;;;;;5.45;1.25;;;;;;;5.50;100.00;101506.63;2087771;28;35566;-76
2022/10/10 00:24:21;;;;;;;4.22;1.05;;;;;;;5.47;100.00;101503.06;2087405;28;39291;-77
2022/10/10 00:25:23;;;;;;;6.95;1.30;;;;;;;5.46;100.00;101503.97;2087212;28;36185;-77
2022/10/10 00:26:24;;;;;;;5.70;1.30;;;;;;;5.49;100.00;101496.00;2095253;28;41351;-77
2022/10/10 00:27:26;;;;;;;4.57;1.17;;;;;;;5.48;100.00;101499.53;2087183;28;25067;-77
2022/10/10 00:28:28;;;;;;;4.00;0.95;;;;;;;5.46;100.00;101501.31;2079645;28;20896;-77
2022/10/10 00:29:32;;;;;;;4.32;0.98;;;;;;;5.43;100.00;101498.63;2086914;28;32795;-77
2022/10/10 00:30:36;;;;;;;4.25;1.10;;;;;;;5.48;100.00;101502.19;2087646;28;42123;-77
2022/10/10 00:31:39;;;;;;;4.35;1.20;;;;;;;5.44;100.00;101497.75;2088185;28;20037;-76
2022/10/10 00:32:40;;;;;;;5.63;1.08;;;;;;;5.49;100.00;101498.66;2087075;28;39060;-76
2022/10/10 00:33:42;;;;;;;3.30;0.98;;;;;;;5.45;100.00;101503.06;2087359;28;36135;-76
2022/10/10 00:34:44;;;;;;;6.13;1.13;;;;;;;5.46;100.00;101502.19;2087783;28;35490;-77
2022/10/10 00:35:47;;;;;;;4.97;1.52;;;;;;;5.49;100.00;101494.25;2087106;28;40876;-77
2022/10/10 00:36:49;;;;;;;4.90;0.98;;;;;;;5.52;100.00;101491.59;2087500;28;43092;-77
2022/10/10 00:37:51;;;;;;;3.80;0.80;;;;;;;5.44;100.00;101485.34;2087398;28;37536;-76
2022/10/10 00:38:52;;;;;;;5.22;1.30;;;;;;;5.42;100.00;101487.13;2087104;28;43918;-77
2022/10/10 00:39:54;;;;;;;3.95;1.17;;;;;;;5.45;100.00;101487.13;2088368;28;20471;-76
2022/10/10 00:40:56;;;;;;;4.32;1.00;;;;;;;5.43;100.00;101485.34;2087278;28;43475;-77
2022/10/10 00:41:57;;;;;;;3.10;0.77;;;;;;;5.44;100.00;101482.69;2087225;28;39723;-76
2022/10/10 00:42:59;;;;;;;4.28;0.98;;;;;;;5.44;100.00;101481.81;2087889;28;34882;-77
2022/10/10 00:44:05;;;;;;;5.00;1.08;;;;;;;5.45;100.00;101478.28;2086853;28;38923;-76
2022/10/10 00:45:27;;;;;;;4.70;1.65;;;;;;;5.45;100.00;101489.78;2087683;28;20048;-76
2022/10/10 00:46:29;;;;;;;5.57;0.80;;;;;;;5.38;100.00;101477.31;2088203;28;32706;-76
2022/10/10 00:47:31;;;;;;;4.47;1.10;;;;;;;5.44;100.00;101479.16;2087391;28;39862;-76
2022/10/10 00:48:44;;;;;;;8.70;1.20;;;;;;;5.45;100.00;101480.94;2086551;28;34519;-76
2022/10/10 00:49:45;;;;;;;3.22;1.20;;;;;;;5.46;100.00;101480.94;2088483;28;41850;-76
2022/10/10 00:50:58;;;;;;;5.35;1.40;;;;;;;5.41;100.00;101474.69;2087588;28;38468;-76
2022/10/10 00:52:04;;;;;;;2.80;0.70;;;;;;;5.36;100.00;101471.13;2086839;28;36778;-76
2022/10/10 00:53:08;;;;;;;5.75;0.85;;;;;;;5.42;100.00;101467.63;2087499;28;34707;-77
2022/10/10 00:54:13;;;;;;;3.47;0.90;;;;;;;5.37;100.00;101472.03;2086569;28;40232;-76
2022/10/10 00:55:16;;;;;;;5.72;0.98;;;;;;;5.37;100.00;101474.69;2087205;28;34534;-76
2022/10/10 00:56:32;;;;;;;6.97;0.90;;;;;;;5.36;100.00;101463.16;2086991;28;37567;-76
2022/10/10 00:57:36;;;;;;;4.47;0.90;;;;;;;5.31;100.00;101471.09;2089622;28;33827;-76
2022/10/10 00:58:44;;;;;;;4.50;1.05;;;;;;;5.35;100.00;101472.03;2093386;28;37273;-76
2022/10/10 00:59:45;;;;;;;5.13;1.08;;;;;;;5.41;100.00;101471.16;2088609;28;33842;-76
2022/10/10 01:00:47;;;;;;;3.35;0.80;;;;;;;5.38;100.00;101464.06;2089294;28;34477;-77
2022/10/10 01:01:49;;;;;;;3.38;1.13;;;;;;;5.39;100.00;101467.63;2088230;28;41319;-76
2022/10/10 01:02:51;;;;;;;5.43;1.42;;;;;;;5.40;100.00;101459.66;2088846;28;20044;-76
2022/10/10 01:03:58;;;;;;;4.40;1.25;;;;;;;5.41;100.00;101471.16;2088220;28;39711;-77
2022/10/10 01:04:59;;;;;;;3.63;1.20;;;;;;;5.43;100.00;101459.66;2089137;28;21064;-76
2022/10/10 01:06:02;;;;;;;4.25;0.98;;;;;;;5.47;100.00;101465.88;2088664;28;38631;-75
2022/10/10 01:07:10;;;;;;;4.70;0.98;;;;;;;5.47;100.00;101463.22;2089065;28;34699;-76
2022/10/10 01:08:12;;;;;;;3.67;1.10;;;;;;;5.47;100.00;101460.56;2080209;28;24540;-76
2022/10/10 01:09:13;;;;;;;3.65;1.00;;;;;;;5.50;100.00;101455.28;2080976;28;32511;-76
2022/10/10 01:10:19;;;;;;;4.50;1.00;;;;;;;5.47;100.00;101456.19;2088521;28;35151;-76
2022/10/10 01:11:21;;;;;;;6.30;1.00;;;;;;;5.48;100.00;101459.72;2089326;28;20038;-76
2022/10/10 01:12:44;;;;;;;3.22;1.27;;;;;;;5.47;100.00;101457.91;2095247;28;35332;-76
2022/10/10 01:14:11;;;;;;;5.00;1.10;;;;;;;5.46;100.00;101451.72;2089001;28;31880;-76
2022/10/10 01:15:43;;;;;;;4.30;1.40;;;;;;;5.46;100.00;101453.50;2088024;28;38344;-77
2022/10/10 01:16:53;;;;;;;3.40;0.90;;;;;;;5.43;100.00;101457.00;2089633;28;20045;-77
2022/10/10 01:18:28;;;;;;;2.80;0.98;;;;;;;5.44;100.00;101447.31;2088467;28;41709;-77
2022/10/10 01:20:17;;;;;;;5.47;1.23;;;;;;;5.39;100.00;101444.59;2088602;28;41705;-76
2022/10/10 01:21:48;;;;;;;3.10;1.00;;;;;;;5.38;100.00;101444.59;2088949;28;35020;-77
2022/10/10 01:23:43;;;;;;;4.70;1.80;;;;;;;5.41;100.00;101444.63;2088846;28;36749;-77
2022/10/10 01:25:22;;;;;;;7.25;1.52;;;;;;;5.36;100.00;101441.91;2089242;28;25392;-77
2022/10/10 01:27:22;;;;;;;5.63;1.42;;;;;;;5.35;100.00;101434.84;2088271;28;38902;-76
2022/10/10 01:28:57;;;;;;;5.32;1.25;;;;;;;5.38;100.00;101440.16;2088081;28;36136;-77
2022/10/10 01:30:09;;;;;;;3.90;1.45;;;;;;;5.42;100.00;101436.66;2092958;28;38353;-76
2022/10/10 01:31:15;;;;;;;2.67;0.90;;;;;;;5.39;100.00;101430.44;2087899;28;37670;-77
2022/10/10 01:32:49;;;;;;;7.05;1.20;;;;;;;5.42;100.00;101438.41;2088928;28;20112;-77
2022/10/10 01:34:45;;;;;;;8.57;1.25;;;;;;;5.41;100.00;101428.69;2088364;28;41955;-77
2022/10/10 01:36:21;;;;;;;5.15;1.00;;;;;;;5.40;100.00;101418.94;2088431;28;34774;-76
2022/10/10 01:38:12;;;;;;;5.35;1.40;;;;;;;5.39;100.00;101425.13;2088201;28;37184;-78
2022/10/10 01:39:44;;;;;;;4.65;1.20;;;;;;;5.35;100.00;101418.91;2088408;28;40999;-78
2022/10/10 01:40:55;;;;;;;3.20;1.17;;;;;;;5.39;100.00;101425.13;2087930;28;34671;-77
2022/10/10 01:42:20;;;;;;;4.38;1.20;;;;;;;5.32;100.00;101414.47;2088160;28;37411;-78
2022/10/10 01:43:24;;;;;;;5.25;1.52;;;;;;;5.30;100.00;101416.22;2088335;28;35358;-78
2022/10/10 01:44:26;;;;;;;3.75;1.30;;;;;;;5.27;100.00;101416.19;2088072;28;39626;-78
2022/10/10 01:45:30;;;;;;;5.07;1.23;;;;;;;5.29;100.00;101427.75;2087677;28;43149;-78
2022/10/10 01:46:32;;;;;;;3.95;1.00;;;;;;;5.26;100.00;101417.09;2087714;28;35305;-78
2022/10/10 01:47:36;;;;;;;6.70;1.08;;;;;;;5.27;100.00;101407.34;2087878;28;41070;-78
2022/10/10 01:48:38;;;;;;;2.55;1.17;;;;;;;5.32;100.00;101408.28;2087181;28;35653;-78
2022/10/10 01:49:43;;;;;;;4.45;1.13;;;;;;;5.28;100.00;101407.34;2079420;28;39750;-78
2022/10/10 01:51:27;;;;;;;2.58;1.10;;;;;;;5.28;100.00;101407.34;2081127;28;40381;-78
2022/10/10 01:52:42;;;;;;;5.45;1.50;;;;;;;5.27;100.00;101410.88;2090491;28;36748;-78
2022/10/10 01:54:20;;;;;;;3.58;1.30;;;;;;;5.29;100.00;101397.63;2088244;28;34754;-78
2022/10/10 01:55:41;;;;;;;4.00;1.80;;;;;;;5.35;100.00;101401.22;2088412;28;36245;-78
2022/10/10 01:57:12;;;;;;;5.13;1.42;;;;;;;5.35;100.00;101397.69;2088523;28;42943;-78
2022/10/10 01:58:39;;;;;;;3.10;1.35;;;;;;;5.46;100.00;101400.38;2088495;28;40024;-78
2022/10/10 02:00:06;;;;;;;5.32;1.38;;;;;;;5.46;100.00;101398.63;2088434;28;38119;-78
2022/10/10 02:01:54;;;;;;;8.18;1.60;;;;;;;5.42;100.00;101401.22;2087559;28;40937;-78
2022/10/10 02:03:25;;;;;;;6.38;1.50;;;;;;;5.34;100.00;101396.75;2071108;28;21522;-78
2022/10/10 02:05:03;;;;;;;5.15;1.40;;;;;;;5.35;100.00;101401.22;2071031;28;40379;-79
2022/10/10 02:06:19;;;;;;;4.22;1.00;;;;;;;5.30;100.00;101399.41;2079243;28;41703;-78
2022/10/10 02:07:32;;;;;;;5.88;1.33;;;;;;;5.26;100.00;101401.16;2074574;28;39125;-78
2022/10/10 02:08:46;;;;;;;5.00;1.45;;;;;;;5.27;100.00;101397.59;2085373;28;30991;-78
2022/10/10 02:09:52;;;;;;;5.28;1.27;;;;;;;5.33;100.00;101394.13;2095003;28;42260;-78
2022/10/10 02:11:00;;;;;;;5.18;1.20;;;;;;;5.37;100.00;101397.69;2088352;28;20037;-78
2022/10/10 02:12:04;;;;;;;6.18;1.42;;;;;;;5.33;100.00;101394.13;2087334;28;41797;-78
2022/10/10 02:13:09;;;;;;;6.03;1.40;;;;;;;5.31;100.00;101388.81;2079300;28;42728;-77
2022/10/10 02:14:21;;;;;;;7.53;1.27;;;;;;;5.33;100.00;101394.13;2080371;28;34954;-78
2022/10/10 02:15:28;;;;;;;3.53;1.25;;;;;;;5.27;100.00;101394.06;2079044;28;38984;-78
2022/10/10 02:16:40;;;;;;;4.22;1.35;;;;;;;5.27;100.00;101397.59;2082256;28;39308;-79
2022/10/10 02:17:46;;;;;;;4.70;1.25;;;;;;;5.23;100.00;101401.13;2086664;28;36155;-78
2022/10/10 02:18:50;;;;;;;5.05;1.60;;;;;;;5.26;100.00;101390.53;2088337;28;20038;-78
2022/10/10 02:19:57;;;;;;;4.05;1.63;;;;;;;5.29;100.00;101385.25;2087458;28;35393;-78
2022/10/10 02:21:03;;;;;;;6.22;1.65;;;;;;;5.22;100.00;101395.81;2088761;28;20089;-78
2022/10/10 02:22:06;;;;;;;7.30;1.40;;;;;;;5.23;100.00;101389.63;2088190;28;39935;-78
2022/10/10 02:23:13;;;;;;;5.15;1.67;;;;;;;5.25;100.00;101383.44;2087471;28;36928;-77
2022/10/10 02:24:18;;;;;;;5.05;1.45;;;;;;;5.26;100.00;101389.66;2089177;28;20075;-77
2022/10/10 02:25:26;;;;;;;6.63;1.40;;;;;;;5.23;100.00;101390.50;2094853;28;35233;-78
2022/10/10 02:26:30;;;;;;;4.90;1.42;;;;;;;5.25;100.00;101382.56;2087944;28;27970;-78
2022/10/10 02:27:42;;;;;;;6.43;1.58;;;;;;;5.24;100.00;101378.13;2088677;28;36140;-77
2022/10/10 02:29:03;;;;;;;3.88;1.08;;;;;;;5.23;100.00;101376.34;2087925;28;39630;-77
2022/10/10 02:30:08;;;;;;;3.42;1.30;;;;;;;5.28;100.00;101379.94;2091373;28;25204;-78
2022/10/10 02:31:16;;;;;;;3.92;1.23;;;;;;;5.31;100.00;101379.94;2097299;28;39184;-77
2022/10/10 02:32:30;;;;;;;5.32;1.38;;;;;;;5.31;100.00;101379.94;2087122;28;36417;-77
2022/10/10 02:33:47;;;;;;;6.10;1.33;;;;;;;5.28;100.00;101374.63;2079486;28;33304;-78
2022/10/10 02:34:54;;;;;;;3.33;1.10;;;;;;;5.25;100.00;101374.59;2075058;28;35809;-78
2022/10/10 02:35:57;;;;;;;3.55;1.17;;;;;;;5.19;100.00;101379.84;2079797;28;28523;-78
2022/10/10 02:37:04;;;;;;;3.58;1.20;;;;;;;5.14;100.00;101378.06;2080110;28;38926;-78
2022/10/10 02:38:10;;;;;;;4.95;1.35;;;;;;;5.11;100.00;101372.72;2080148;28;20077;-77
2022/10/10 02:39:13;;;;;;;4.30;1.60;;;;;;;5.11;100.00;101377.16;2074049;28;37210;-78
2022/10/10 02:40:23;;;;;;;3.55;1.00;;;;;;;5.14;100.00;101370.09;2075767;28;35108;-78
2022/10/10 02:41:26;;;;;;;4.45;1.50;;;;;;;5.16;100.00;101368.34;2080592;28;31490;-78
2022/10/10 02:42:29;;;;;;;4.95;1.50;;;;;;;5.17;100.00;101361.28;2088321;28;20037;-77
2022/10/10 02:43:33;;;;;;;3.95;1.30;;;;;;;5.21;100.00;101362.19;2087946;28;31390;-77
2022/10/10 02:44:36;;;;;;;5.63;1.63;;;;;;;5.25;100.00;101364.84;2086467;28;39125;-76
2022/10/10 02:45:39;;;;;;;5.55;1.40;;;;;;;5.28;100.00;101354.25;2078944;28;38018;-77
2022/10/10 02:46:41;;;;;;;6.30;1.65;;;;;;;5.41;100.00;101357.00;2086463;28;40366;-77
2022/10/10 02:47:44;;;;;;;6.55;1.35;;;;;;;5.42;100.00;101356.09;2086184;28;43668;-78
2022/10/10 02:48:45;;;;;;;3.78;1.35;;;;;;;5.40;100.00;101353.44;2086307;28;36848;-77
2022/10/10 02:49:48;;;;;;;4.25;1.42;;;;;;;5.40;100.00;101355.19;2079625;28;20065;-78
2022/10/10 02:50:49;;;;;;;4.95;1.42;;;;;;;5.41;100.00;101344.59;2071173;28;42363;-77
2022/10/10 02:51:54;;;;;;;6.10;1.25;;;;;;;5.45;100.00;101351.69;2087275;28;43649;-78
2022/10/10 02:52:56;;;;;;;3.95;1.20;;;;;;;5.44;100.00;101357.00;2087841;28;34892;-78
2022/10/10 02:53:58;;;;;;;4.90;1.45;;;;;;;5.41;100.00;101349.03;2088320;28;34587;-78
2022/10/10 02:55:00;;;;;;;6.22;1.92;;;;;;;5.48;100.00;101348.16;2087831;28;40439;-78
2022/10/10 02:56:03;;;;;;;5.18;1.52;;;;;;;5.49;100.00;101347.28;2088398;28;37502;-78
2022/10/10 02:57:07;;;;;;;6.10;1.30;;;;;;;5.55;100.00;101350.84;2087605;28;39909;-78
2022/10/10 02:58:08;;;;;;;5.70;1.63;;;;;;;5.53;100.00;101344.66;2087775;28;36667;-78
2022/10/10 02:59:10;;;;;;;5.80;1.52;;;;;;;5.50;100.00;101349.94;2087738;28;35784;-78
2022/10/10 03:00:13;;;;;;;4.38;1.27;;;;;;;5.52;100.00;101344.63;2087730;28;39832;-78
2022/10/10 03:01:15;;;;;;;4.93;1.25;;;;;;;5.52;100.00;101342.84;2089952;28;40062;-78
2022/10/10 03:02:17;;;;;;;7.90;1.70;;;;;;;5.54;100.00;101345.53;2088330;28;35843;-78
2022/10/10 03:03:19;;;;;;;4.55;1.20;;;;;;;5.63;100.00;101347.34;2087590;28;38862;-78
2022/10/10 03:04:20;;;;;;;4.78;1.42;;;;;;;5.64;100.00;101341.16;2088297;28;34767;-78
2022/10/10 03:05:22;;;;;;;4.32;1.45;;;;;;;5.61;100.00;101349.09;2087538;28;37437;-78
2022/10/10 03:06:24;;;;;;;5.88;1.38;;;;;;;5.62;100.00;101342.94;2087545;28;35953;-78
2022/10/10 03:07:28;;;;;;;4.28;1.33;;;;;;;5.60;100.00;101347.31;2087983;28;39991;-79
2022/10/10 03:08:29;;;;;;;3.28;1.10;;;;;;;5.56;100.00;101346.41;2087386;28;41875;-78
2022/10/10 03:09:34;;;;;;;4.53;1.33;;;;;;;5.64;100.00;101341.16;2086910;28;42366;-79
2022/10/10 03:10:35;;;;;;;4.80;1.40;;;;;;;5.65;100.00;101342.91;2087422;28;35092;-78
2022/10/10 03:11:37;;;;;;;3.65;1.42;;;;;;;5.71;100.00;101343.84;2087082;28;37401;-78
2022/10/10 03:12:41;;;;;;;4.15;1.63;;;;;;;5.70;100.00;101331.41;2087280;28;38828;-79
2022/10/10 03:13:42;;;;;;;3.38;1.40;;;;;;;5.65;100.00;101338.50;2086617;28;41484;-79
2022/10/10 03:14:44;;;;;;;4.50;1.27;;;;;;;5.65;100.00;101338.50;2088279;28;39432;-78
2022/10/10 03:15:46;;;;;;;4.40;1.50;;;;;;;5.61;100.00;101328.72;2088008;28;35806;-78
2022/10/10 03:16:47;;;;;;;4.50;1.65;;;;;;;5.58;100.00;101330.50;2087812;28;36345;-80
2022/10/10 03:17:49;;;;;;;5.45;1.77;;;;;;;5.73;100.00;101325.25;2088242;28;38269;-77
2022/10/10 03:18:51;;;;;;;4.35;1.30;;;;;;;5.79;100.00;101324.38;2087834;28;43327;-77
2022/10/10 03:19:52;;;;;;;5.32;1.75;;;;;;;5.81;100.00;101323.47;2087757;28;32312;-77
2022/10/10 03:20:55;;;;;;;6.40;1.42;;;;;;;5.84;100.00;101327.94;2087004;28;39000;-77
2022/10/10 03:21:57;;;;;;;6.28;1.98;;;;;;;5.88;100.00;101325.28;2086932;28;36852;-77
2022/10/10 03:22:58;;;;;;;4.20;1.40;;;;;;;5.87;100.00;101326.16;2087654;28;35726;-78
2022/10/10 03:24:00;;;;;;;4.82;1.88;;;;;;;5.88;100.00;101324.41;2087355;28;39849;-78
2022/10/10 03:25:05;;;;;;;2.60;1.40;;;;;;;5.91;100.00;101319.09;2087898;28;20037;-78
2022/10/10 03:26:06;;;;;;;4.63;1.60;;;;;;;5.91;100.00;101321.75;2087878;28;38143;-78
2022/10/10 03:27:08;;;;;;;7.65;1.70;;;;;;;5.87;100.00;101323.50;2087795;28;39967;-77
2022/10/10 03:28:11;;;;;;;5.68;2.45;;;;;;;5.88;100.00;101319.97;2087831;28;40319;-78
2022/10/10 03:29:12;;;;;;;5.90;1.45;;;;;;;5.86;100.00;101320.84;2088456;28;37593;-77
2022/10/10 03:30:14;;;;;;;3.97;1.60;;;;;;;5.88;100.00;101325.28;2087382;28;37133;-78
2022/10/10 03:31:16;;;;;;;4.38;1.58;;;;;;;5.87;100.00;101328.81;2088628;28;21600;-77
2022/10/10 03:32:18;;;;;;;4.03;1.40;;;;;;;5.88;100.00;101317.28;2086879;28;38333;-77
2022/10/10 03:33:19;;;;;;;7.93;1.88;;;;;;;5.85;100.00;101324.38;2087184;28;40452;-78
2022/10/10 03:34:21;;;;;;;2.88;1.70;;;;;;;5.83;100.00;101315.50;2087820;28;40741;-78
2022/10/10 03:35:23;;;;;;;5.00;1.88;;;;;;;5.94;100.00;101324.44;2087901;28;37508;-78
2022/10/10 03:36:24;;;;;;;6.72;1.55;;;;;;;5.92;100.00;101320.84;2088289;28;35799;-78
2022/10/10 03:37:26;;;;;;;5.18;1.73;;;;;;;5.91;100.00;101314.66;2087098;28;40606;-78
2022/10/10 03:38:29;;;;;;;5.47;1.63;;;;;;;5.92;100.00;101321.75;2087175;28;42503;-78
2022/10/10 03:39:31;;;;;;;5.90;1.60;;;;;;;5.93;100.00;101317.31;2087998;28;36088;-78
2022/10/10 03:40:33;;;;;;;5.55;1.42;;;;;;;5.96;100.00;101320.03;2087590;28;43967;-78
2022/10/10 03:41:35;;;;;;;5.45;1.65;;;;;;;5.89;100.00;101312.88;2087394;28;38433;-78
2022/10/10 03:42:37;;;;;;;2.85;1.38;;;;;;;5.86;100.00;101311.09;2088067;28;20030;-78
2022/10/10 03:43:41;;;;;;;4.70;1.50;;;;;;;5.84;100.00;101312.88;2087957;28;43287;-78
2022/10/10 03:44:43;;;;;;;6.22;1.90;;;;;;;5.82;100.00;101313.75;2086634;28;37445;-78
2022/10/10 03:45:46;;;;;;;10.50;1.85;;;;;;;5.82;100.00;101313.75;2087279;28;37962;-78
2022/10/10 03:46:48;;;;;;;5.20;1.40;;;;;;;5.78;100.00;101317.28;2087038;28;39329;-78
2022/10/10 03:47:50;;;;;;;6.63;1.70;;;;;;;5.77;100.00;101312.84;2087807;28;36509;-78
2022/10/10 03:48:54;;;;;;;4.10;1.50;;;;;;;5.77;100.00;101310.19;2086993;28;38193;-78
2022/10/10 03:49:55;;;;;;;5.47;1.70;;;;;;;5.73;100.00;101310.19;2088483;28;20026;-78
2022/10/10 03:50:57;;;;;;;7.28;1.77;;;;;;;5.81;100.00;101301.34;2095097;28;36937;-77
2022/10/10 03:52:01;;;;;;;4.68;1.90;;;;;;;5.76;100.00;101304.00;2087432;28;35509;-77
2022/10/10 03:53:03;;;;;;;4.25;1.67;;;;;;;5.71;100.00;101303.97;2087210;28;23880;-77
2022/10/10 03:54:05;;;;;;;4.13;2.00;;;;;;;5.72;100.00;101307.53;2087333;28;37729;-78
2022/10/10 03:55:07;;;;;;;5.93;1.85;;;;;;;5.67;100.00;101299.56;2087303;28;37789;-78
2022/10/10 03:56:09;;;;;;;6.10;1.80;;;;;;;5.77;100.00;101302.22;2087795;28;39438;-78
2022/10/10 03:57:15;;;;;;;4.72;1.73;;;;;;;5.78;100.00;101311.97;2088104;28;36420;-78
2022/10/10 03:58:17;;;;;;;4.53;1.58;;;;;;;5.77;100.00;101310.19;2088612;28;20037;-78
2022/10/10 03:59:24;;;;;;;3.03;1.55;;;;;;;5.80;100.00;101302.25;2088126;28;37728;-77
2022/10/10 04:00:28;;;;;;;4.70;1.70;;;;;;;5.76;100.00;101306.66;2088021;28;35605;-79
2022/10/10 04:01:29;;;;;;;4.80;1.73;;;;;;;5.70;100.00;101311.94;2087399;28;40470;-77
2022/10/10 04:02:32;;;;;;;7.53;2.13;;;;;;;5.80;100.00;101310.22;2086971;28;43965;-78
2022/10/10 04:03:33;;;;;;;4.35;1.60;;;;;;;5.73;100.00;101306.66;2088035;28;20038;-77
2022/10/10 04:04:35;;;;;;;4.68;1.80;;;;;;;5.74;100.00;101305.75;2095070;28;41825;-77
2022/10/10 04:05:38;;;;;;;6.68;2.08;;;;;;;5.77;100.00;101311.06;2087633;28;37488;-78
2022/10/10 04:06:40;;;;;;;5.25;1.50;;;;;;;5.73;100.00;101310.19;2087136;28;40190;-78
2022/10/10 04:07:44;;;;;;;6.85;1.55;;;;;;;5.70;100.00;101310.16;2086888;28;43107;-77
2022/10/10 04:08:46;;;;;;;5.60;1.70;;;;;;;5.73;100.00;101302.22;2086929;28;39351;-78
2022/10/10 04:09:47;;;;;;;5.25;1.60;;;;;;;5.73;100.00;101298.69;2087080;28;37787;-78
2022/10/10 04:10:52;;;;;;;4.45;1.75;;;;;;;5.71;100.00;101301.31;2087758;28;34734;-78
2022/10/10 04:11:55;;;;;;;6.25;1.80;;;;;;;5.70;100.00;101302.19;2087484;28;32582;-78
2022/10/10 04:13:00;;;;;;;4.28;1.90;;;;;;;5.70;100.00;101294.22;2088753;28;20046;-78
2022/10/10 04:14:02;;;;;;;5.82;2.00;;;;;;;5.77;100.00;101296.91;2087181;28;33293;-78
2022/10/10 04:15:04;;;;;;;5.07;1.70;;;;;;;5.81;100.00;101299.56;2086648;28;35066;-78
2022/10/10 04:16:06;;;;;;;6.82;2.00;;;;;;;5.75;100.00;101294.25;2087646;28;39121;-78
2022/10/10 04:17:07;;;;;;;6.97;1.73;;;;;;;5.77;100.00;101295.13;2087478;28;39194;-78
2022/10/10 04:18:09;;;;;;;5.72;1.73;;;;;;;5.79;100.00;101288.06;2086836;28;34027;-78
2022/10/10 04:19:11;;;;;;;6.80;1.80;;;;;;;5.80;100.00;101296.94;2086148;28;40077;-79
2022/10/10 04:20:12;;;;;;;6.22;1.98;;;;;;;5.82;100.00;101297.81;2087565;28;36761;-78
2022/10/10 04:21:14;;;;;;;6.50;1.60;;;;;;;5.81;100.00;101291.59;2087342;28;33929;-78
2022/10/10 04:22:16;;;;;;;6.57;2.05;;;;;;;5.82;100.00;101287.19;2087119;28;37052;-78
2022/10/10 04:23:21;;;;;;;3.85;1.80;;;;;;;5.82;100.00;101287.19;2094965;28;40835;-78
2022/10/10 04:24:23;;;;;;;4.07;1.85;;;;;;;5.71;100.00;101280.06;2087090;28;35386;-78
2022/10/10 04:25:24;;;;;;;5.85;1.60;;;;;;;5.71;100.00;101285.38;2087921;28;35986;-78
2022/10/10 04:26:26;;;;;;;2.67;1.48;;;;;;;5.64;100.00;101288.03;2087666;28;36135;-79
2022/10/10 04:27:29;;;;;;;5.53;2.15;;;;;;;5.64;100.00;101283.59;2088189;28;20041;-78
2022/10/10 04:28:30;;;;;;;3.70;1.70;;;;;;;5.60;100.00;101281.81;2087710;28;41480;-78
2022/10/10 04:29:32;;;;;;;4.35;1.65;;;;;;;5.60;100.00;101278.25;2087292;28;39078;-78
2022/10/10 04:30:34;;;;;;;6.22;2.20;;;;;;;5.60;100.00;101284.47;2087405;28;35469;-78
2022/10/10 04:31:35;;;;;;;3.25;1.70;;;;;;;5.50;100.00;101280.00;2088295;28;20120;-79
2022/10/10 04:32:40;;;;;;;5.80;1.80;;;;;;;5.46;100.00;101288.84;2088189;28;34461;-78
2022/10/10 04:33:42;;;;;;;6.95;1.80;;;;;;;5.49;100.00;101286.19;2079582;28;41043;-78
2022/10/10 04:34:44;;;;;;;5.07;1.80;;;;;;;5.48;100.00;101285.31;2081125;28;33993;-78
2022/10/10 04:35:49;;;;;;;4.82;2.05;;;;;;;5.49;100.00;101276.47;2096823;28;30328;-78
2022/10/10 04:36:50;;;;;;;5.25;1.73;;;;;;;5.51;100.00;101281.78;2088352;28;36109;-78
2022/10/10 04:37:52;;;;;;;4.75;1.90;;;;;;;5.49;100.00;101278.22;2088269;28;34180;-78
2022/10/10 04:38:56;;;;;;;4.65;2.15;;;;;;;5.50;100.00;101286.19;2087774;28;42013;-79
2022/10/10 04:40:00;;;;;;;5.05;2.10;;;;;;;5.51;100.00;101276.50;2088517;28;40021;-78
2022/10/10 04:41:02;;;;;;;6.78;2.42;;;;;;;5.49;100.00;101275.56;2088832;28;35474;-78
2022/10/10 04:42:04;;;;;;;5.20;1.85;;;;;;;5.48;100.00;101273.81;2088781;28;38735;-78
2022/10/10 04:43:08;;;;;;;4.55;1.90;;;;;;;5.45;100.00;101272.00;2089013;28;39406;-78
2022/10/10 04:44:10;;;;;;;3.30;1.90;;;;;;;5.43;100.00;101272.91;2089666;28;20037;-78
2022/10/10 04:45:12;;;;;;;7.30;2.10;;;;;;;5.47;100.00;101274.69;2089062;28;38264;-78
2022/10/10 04:46:13;;;;;;;3.95;2.30;;;;;;;5.51;100.00;101277.38;2088612;28;40183;-78
2022/10/10 04:47:15;;;;;;;3.38;2.25;;;;;;;5.49;100.00;101262.28;2089106;28;36750;-78
2022/10/10 04:48:17;;;;;;;4.25;2.05;;;;;;;5.46;100.00;101273.81;2089056;28;42371;-78
2022/10/10 04:49:22;;;;;;;5.60;2.40;;;;;;;5.44;100.00;101272.91;2087504;28;43402;-78
2022/10/10 04:50:23;;;;;;;5.13;2.08;;;;;;;5.46;100.00;101267.63;2095539;28;40013;-78
2022/10/10 04:51:25;;;;;;;5.57;1.95;;;;;;;5.45;100.00;101272.00;2089003;28;38724;-78
2022/10/10 04:52:27;;;;;;;3.53;2.20;;;;;;;5.46;100.00;101263.19;2089090;28;37199;-78
2022/10/10 04:53:28;;;;;;;5.88;2.10;;;;;;;5.48;100.00;101265.84;2088999;28;40243;-78
2022/10/10 04:54:30;;;;;;;5.95;2.42;;;;;;;5.49;100.00;101278.22;2088699;28;42759;-78
2022/10/10 04:55:32;;;;;;;6.60;2.13;;;;;;;5.46;100.00;101267.63;2088989;28;34861;-78
2022/10/10 04:56:33;;;;;;;3.97;2.17;;;;;;;5.40;100.00;101271.13;2089090;28;37455;-79
2022/10/10 04:57:35;;;;;;;8.38;2.70;;;;;;;5.42;100.00;101266.72;2089096;28;36914;-79
2022/10/10 04:58:37;;;;;;;4.72;2.00;;;;;;;5.46;100.00;101267.63;2088806;28;41094;-79
2022/10/10 04:59:38;;;;;;;4.50;2.40;;;;;;;5.46;100.00;101265.84;2087755;28;40810;-78
2022/10/10 05:00:40;;;;;;;4.82;2.15;;;;;;;5.44;100.00;101264.94;2088221;28;43265;-79
2022/10/10 05:01:42;;;;;;;8.27;2.10;;;;;;;5.40;100.00;101268.47;2089668;28;20036;-79
2022/10/10 05:02:44;;;;;;;6.60;2.50;;;;;;;5.42;100.00;101268.47;2087683;28;42381;-78
2022/10/10 05:03:45;;;;;;;6.43;2.00;;;;;;;5.36;100.00;101261.38;2088224;28;36049;-78
2022/10/10 05:04:47;;;;;;;4.15;2.25;;;;;;;5.38;100.00;101272.00;2089036;28;20038;-78
2022/10/10 05:05:49;;;;;;;4.82;2.05;;;;;;;5.34;100.00;101269.31;2087907;28;41657;-79
2022/10/10 05:06:51;;;;;;;6.07;2.38;;;;;;;5.32;100.00;101265.78;2079719;28;39571;-78
2022/10/10 05:07:53;;;;;;;6.55;2.63;;;;;;;5.35;100.00;101270.22;2071989;28;35405;-78
2022/10/10 05:08:57;;;;;;;7.60;2.55;;;;;;;5.30;100.00;101271.97;2088573;28;37608;-79